createdAt,value
2022-08-23T00:00:45.119Z,89.61
2022-08-23T00:01:52.812Z,90.02
2022-08-23T00:02:45.633Z,90.12
2022-08-23T00:03:45.941Z,90.53
2022-08-23T00:05:07.604Z,90.83
2022-08-23T00:05:47.353Z,91.03
2022-08-23T00:06:45.112Z,91.24
2022-08-23T00:07:44.973Z,91.13
2022-08-23T00:08:48.326Z,90.93
2022-08-23T00:09:44.953Z,90.73
2022-08-23T00:10:44.940Z,91.03
2022-08-23T00:11:44.903Z,91.34
2022-08-23T00:12:44.898Z,91.58
2022-08-23T00:13:47.961Z,91.48
2022-08-23T00:14:45.390Z,91.48
2022-08-23T00:15:44.873Z,91.38
2022-08-23T00:16:44.855Z,90.97
2022-08-23T00:17:44.813Z,91.68
2022-08-23T00:18:47.731Z,91.99
2022-08-23T00:19:44.803Z,91.38
2022-08-23T00:20:44.817Z,91.38
2022-08-23T00:21:44.772Z,91.38
2022-08-23T00:22:44.742Z,91.17
2022-08-23T00:23:44.752Z,91.22
2022-08-23T00:24:45.309Z,91.32
2022-08-23T00:25:44.713Z,91.12
2022-08-23T00:26:44.740Z,91.12
2022-08-23T00:27:44.703Z,91.83
2022-08-23T00:28:44.660Z,91.93
2022-08-23T00:29:44.680Z,91.93
2022-08-23T00:30:45.089Z,91.32
2022-08-23T00:31:44.630Z,91.12
2022-08-23T00:32:44.643Z,91.22
2022-08-23T00:33:44.601Z,91.32
2022-08-23T00:34:44.902Z,91.32
2022-08-23T00:35:44.606Z,91.02
2022-08-23T00:36:44.578Z,90.61
2022-08-23T00:37:44.580Z,90.41
2022-08-23T00:38:45.553Z,90.20
2022-08-23T00:39:44.579Z,90.11
2022-08-23T00:40:44.837Z,90.11
2022-08-23T00:41:45.503Z,90.31
2022-08-23T00:42:44.499Z,90.71
2022-08-23T00:43:44.506Z,90.92
2022-08-23T00:44:44.542Z,91.42
2022-08-23T00:45:44.463Z,91.83
2022-08-23T00:46:44.469Z,92.03
2022-08-23T00:47:45.017Z,91.73
2022-08-23T00:48:44.412Z,91.63
2022-08-23T00:49:44.458Z,91.87
2022-08-23T00:50:44.568Z,92.28
2022-08-23T00:51:53.182Z,92.38
2022-08-23T00:52:45.389Z,92.38
2022-08-23T00:53:44.358Z,92.79
2022-08-23T00:54:44.741Z,92.79
2022-08-23T00:55:44.326Z,92.79
2022-08-23T00:56:44.323Z,92.79
2022-08-23T00:57:44.297Z,92.68
2022-08-23T00:58:44.285Z,92.58
2022-08-23T00:59:44.274Z,92.68
2022-08-23T01:00:44.636Z,92.68
2022-08-23T01:01:44.308Z,92.58
2022-08-23T01:02:44.236Z,92.89
2022-08-23T01:03:44.237Z,93.33
2022-08-23T01:04:44.664Z,93.74
2022-08-23T01:05:44.214Z,93.84
2022-08-23T01:06:44.202Z,93.95
2022-08-23T01:07:44.204Z,93.74
2022-08-23T01:08:44.166Z,93.54
2022-08-23T01:09:44.184Z,93.74
2022-08-23T01:10:44.540Z,94.05
2022-08-23T01:11:44.154Z,94.35
2022-08-23T01:12:44.111Z,94.25
2022-08-23T01:13:44.115Z,94.15
2022-08-23T01:14:44.534Z,94.15
2022-08-23T01:15:44.072Z,94.86
2022-08-23T01:16:44.061Z,94.96
2022-08-23T01:17:44.082Z,95.10
2022-08-23T01:18:44.072Z,95.01
2022-08-23T01:19:44.051Z,95.21
2022-08-23T01:20:44.021Z,95.41
2022-08-23T01:21:44.002Z,95.62
2022-08-23T01:22:43.991Z,95.92
2022-08-23T01:23:43.980Z,95.92
2022-08-23T01:25:06.247Z,95.92
2022-08-23T01:25:44.958Z,96.12
2022-08-23T01:26:43.951Z,96.43
2022-08-23T01:27:43.920Z,96.53
2022-08-23T01:28:45.759Z,96.12
2022-08-23T01:29:43.888Z,95.72
2022-08-23T01:30:43.908Z,95.51
2022-08-23T01:31:43.861Z,95.31
2022-08-23T01:32:51.021Z,95.10
2022-08-23T01:33:51.021Z,95.56
2022-08-23T01:34:45.908Z,95.76
2022-08-23T01:35:44.850Z,96.07
2022-08-23T01:36:43.807Z,96.17
2022-08-23T01:37:43.777Z,96.07
2022-08-23T01:38:43.781Z,95.97
2022-08-23T01:39:43.769Z,96.17
2022-08-23T01:40:44.232Z,96.27
2022-08-23T01:41:43.727Z,96.27
2022-08-23T01:42:43.734Z,96.37
2022-08-23T01:43:43.696Z,96.37
2022-08-23T01:44:44.014Z,96.37
2022-08-23T01:45:45.290Z,96.27
2022-08-23T01:46:43.678Z,96.17
2022-08-23T01:47:43.637Z,96.37
2022-08-23T01:48:43.647Z,96.68
2022-08-23T01:49:43.635Z,96.68
2022-08-23T01:50:44.037Z,96.68
2022-08-23T01:51:43.615Z,96.78
2022-08-23T01:52:47.207Z,96.78
2022-08-23T01:53:43.587Z,96.62
2022-08-23T01:54:43.615Z,97.13
2022-08-23T01:55:43.526Z,97.33
2022-08-23T01:56:43.537Z,97.13
2022-08-23T01:57:45.474Z,97.03
2022-08-23T01:58:43.535Z,97.03
2022-08-23T01:59:48.412Z,97.33
2022-08-23T02:00:43.906Z,97.64
2022-08-23T02:01:43.534Z,97.84
2022-08-23T02:02:43.455Z,97.64
2022-08-23T02:03:43.435Z,97.44
2022-08-23T02:04:43.873Z,97.33
2022-08-23T02:05:43.444Z,97.23
2022-08-23T02:06:43.401Z,97.03
2022-08-23T02:07:43.373Z,96.92
2022-08-23T02:08:43.370Z,96.92
2022-08-23T02:09:43.360Z,97.03
2022-08-23T02:10:43.803Z,97.13
2022-08-23T02:11:43.331Z,97.64
2022-08-23T02:12:43.330Z,98.14
2022-08-23T02:13:43.311Z,98.45
2022-08-23T02:14:43.673Z,97.74
2022-08-23T02:15:43.285Z,97.33
2022-08-23T02:16:43.282Z,97.07
2022-08-23T02:17:44.268Z,97.38
2022-08-23T02:18:43.243Z,97.78
2022-08-23T02:19:43.230Z,98.30
2022-08-23T02:20:43.568Z,98.45
2022-08-23T02:21:43.211Z,98.55
2022-08-23T02:22:43.199Z,98.96
2022-08-23T02:23:43.171Z,99.16
2022-08-23T02:24:43.590Z,99.06
2022-08-23T02:25:43.160Z,98.55
2022-08-23T02:26:46.342Z,98.45
2022-08-23T02:27:44.292Z,98.45
2022-08-23T02:28:43.121Z,98.35
2022-08-23T02:29:44.077Z,97.64
2022-08-23T02:30:43.409Z,97.44
2022-08-23T02:31:43.079Z,97.44
2022-08-23T02:32:43.058Z,97.58
2022-08-23T02:33:43.050Z,97.58
2022-08-23T02:34:43.379Z,97.69
2022-08-23T02:35:43.026Z,97.89
2022-08-23T02:36:42.988Z,98.19
2022-08-23T02:37:42.998Z,98.60
2022-08-23T02:38:42.978Z,98.80
2022-08-23T02:39:43.451Z,98.91
2022-08-23T02:40:42.967Z,98.91
2022-08-23T02:41:42.945Z,99.11
2022-08-23T02:42:42.947Z,98.91
2022-08-23T02:43:42.919Z,98.80
2022-08-23T02:44:43.246Z,98.70
2022-08-23T02:45:42.966Z,98.60
2022-08-23T02:46:43.027Z,98.30
2022-08-23T02:47:42.884Z,98.65
2022-08-23T02:48:42.864Z,98.95
2022-08-23T02:49:42.881Z,99.05
2022-08-23T02:50:43.276Z,98.95
2022-08-23T02:51:42.842Z,98.95
2022-08-23T02:52:42.796Z,99.26
2022-08-23T02:53:42.785Z,99.66
2022-08-23T02:54:43.285Z,99.99
2022-08-23T02:55:42.922Z,99.99
2022-08-23T02:56:42.767Z,99.99
2022-08-23T02:57:42.745Z,99.99
2022-08-23T02:58:42.728Z,99.99
2022-08-23T02:59:42.720Z,99.99
2022-08-23T03:00:43.134Z,99.99
2022-08-23T03:01:42.700Z,99.99
2022-08-23T03:02:51.340Z,99.99
2022-08-23T03:04:59.165Z,99.99
2022-08-23T03:06:24.915Z,99.99
2022-08-23T03:06:59.794Z,99.99
2022-08-23T03:07:58.840Z,99.99
2022-08-23T03:08:58.743Z,99.71
2022-08-23T03:09:59.185Z,99.61
2022-08-23T03:10:58.734Z,99.61
2022-08-23T03:12:00.114Z,99.91
2022-08-23T03:13:03.344Z,99.99
2022-08-23T03:13:58.678Z,99.99
2022-08-23T03:14:59.034Z,99.99
2022-08-23T03:15:58.664Z,99.99
2022-08-23T03:16:58.653Z,99.71
2022-08-23T03:17:58.643Z,99.81
2022-08-23T03:18:58.636Z,99.99
2022-08-23T03:19:59.034Z,99.99
2022-08-23T03:20:58.602Z,99.99
2022-08-23T03:21:58.590Z,99.99
2022-08-23T03:22:58.585Z,99.99
2022-08-23T03:23:58.551Z,99.99
2022-08-23T03:24:58.950Z,99.99
2022-08-23T03:25:58.560Z,99.99
2022-08-23T03:26:58.643Z,99.99
2022-08-23T03:27:58.936Z,99.99
2022-08-23T03:28:58.762Z,99.99
2022-08-23T03:29:59.133Z,99.99
2022-08-23T03:30:58.497Z,99.99
2022-08-23T03:31:58.467Z,99.99
2022-08-23T03:32:58.431Z,99.99
2022-08-23T03:33:58.434Z,99.99
2022-08-23T03:34:58.753Z,99.99
2022-08-23T03:35:58.409Z,99.99
2022-08-23T03:36:58.457Z,99.99
2022-08-23T03:37:58.368Z,99.99
2022-08-23T03:38:58.389Z,99.99
2022-08-23T03:39:58.760Z,99.99
2022-08-23T03:40:58.351Z,99.99
2022-08-23T03:41:58.331Z,99.99
2022-08-23T03:42:58.338Z,99.99
2022-08-23T03:43:58.320Z,99.99
2022-08-23T03:45:02.448Z,99.99
2022-08-23T03:45:58.538Z,99.99
2022-08-23T03:46:58.268Z,99.99
2022-08-23T03:47:58.258Z,99.96
2022-08-23T03:48:58.257Z,99.96
2022-08-23T03:49:58.246Z,99.96
2022-08-23T03:50:58.645Z,99.99
2022-08-23T03:51:58.209Z,99.99
2022-08-23T03:52:58.187Z,99.99
2022-08-23T03:53:58.163Z,99.99
2022-08-23T03:54:58.588Z,99.99
2022-08-23T03:55:58.136Z,99.99
2022-08-23T03:56:58.136Z,99.99
2022-08-23T03:57:58.188Z,99.99
2022-08-23T03:58:58.126Z,99.99
2022-08-23T03:59:58.105Z,99.99
2022-08-23T04:00:58.326Z,99.99
2022-08-23T04:01:58.243Z,99.99
2022-08-23T04:02:58.075Z,99.99
2022-08-23T04:03:58.046Z,99.99
2022-08-23T04:04:58.458Z,99.99
2022-08-23T04:05:58.014Z,99.99
2022-08-23T04:06:57.994Z,99.99
2022-08-23T04:07:58.066Z,99.99
2022-08-23T04:08:57.993Z,99.99
2022-08-23T04:09:57.972Z,99.99
2022-08-23T04:10:58.352Z,99.99
2022-08-23T04:11:57.940Z,99.99
2022-08-23T04:12:57.934Z,99.99
2022-08-23T04:14:05.403Z,99.99
2022-08-23T04:14:58.253Z,99.99
2022-08-23T04:15:57.892Z,99.99
2022-08-23T04:16:57.901Z,99.99
2022-08-23T04:17:57.880Z,99.99
2022-08-23T04:18:57.844Z,99.99
2022-08-23T04:19:58.331Z,99.99
2022-08-23T04:20:57.871Z,99.99
2022-08-23T04:21:57.816Z,99.99
2022-08-23T04:22:57.800Z,99.99
2022-08-23T04:23:57.782Z,99.99
2022-08-23T04:24:58.161Z,99.99
2022-08-23T04:25:57.760Z,99.99
2022-08-23T04:26:57.770Z,99.99
2022-08-23T04:27:57.800Z,99.99
2022-08-23T04:28:57.740Z,99.99
2022-08-23T04:29:58.151Z,99.99
2022-08-23T04:30:57.759Z,99.99
2022-08-23T04:31:57.709Z,99.99
2022-08-23T04:32:57.666Z,99.99
2022-08-23T04:33:57.690Z,99.99
2022-08-23T04:34:57.955Z,99.99
2022-08-23T04:35:57.656Z,99.99
2022-08-23T04:36:57.629Z,99.99
2022-08-23T04:37:57.655Z,99.99
2022-08-23T04:38:57.619Z,99.99
2022-08-23T04:39:57.618Z,99.99
2022-08-23T04:40:58.018Z,99.99
2022-08-23T04:41:57.608Z,99.99
2022-08-23T04:42:57.546Z,99.99
2022-08-23T04:43:57.579Z,99.99
2022-08-23T04:44:57.670Z,99.99
2022-08-23T04:45:57.877Z,99.99
2022-08-23T04:46:57.506Z,99.99
2022-08-23T04:47:57.538Z,99.99
2022-08-23T04:48:57.466Z,99.99
2022-08-23T04:49:57.466Z,99.99
2022-08-23T04:50:57.889Z,99.99
2022-08-23T04:51:57.465Z,99.99
2022-08-23T04:52:57.412Z,99.99
2022-08-23T04:53:57.416Z,99.99
2022-08-23T04:54:57.824Z,99.99
2022-08-23T04:55:57.400Z,99.99
2022-08-23T04:56:57.362Z,99.99
2022-08-23T04:57:57.382Z,99.99
2022-08-23T04:58:57.364Z,99.99
2022-08-23T04:59:57.322Z,99.99
2022-08-23T05:00:57.747Z,99.99
2022-08-23T05:01:57.312Z,99.99
2022-08-23T05:02:57.316Z,99.99
2022-08-23T05:03:57.284Z,99.99
2022-08-23T05:04:57.689Z,99.99
2022-08-23T05:05:57.263Z,99.99
2022-08-23T05:06:57.228Z,99.99
2022-08-23T05:07:57.275Z,99.99
2022-08-23T05:08:57.213Z,99.99
2022-08-23T05:09:57.191Z,99.99
2022-08-23T05:10:57.583Z,99.99
2022-08-23T05:11:57.200Z,99.99
2022-08-23T05:12:57.201Z,99.99
2022-08-23T05:13:57.150Z,99.99
2022-08-23T05:14:57.579Z,99.99
2022-08-23T05:15:57.220Z,99.99
2022-08-23T05:16:57.142Z,99.99
2022-08-23T05:17:57.141Z,99.99
2022-08-23T05:18:57.079Z,99.99
2022-08-23T05:19:57.111Z,99.99
2022-08-23T05:20:57.439Z,99.99
2022-08-23T05:21:57.388Z,99.99
2022-08-23T05:22:57.046Z,99.99
2022-08-23T05:23:57.029Z,99.99
2022-08-23T05:24:57.439Z,99.99
2022-08-23T05:25:56.990Z,99.99
2022-08-23T05:26:56.988Z,99.99
2022-08-23T05:27:57.114Z,99.99
2022-08-23T05:28:56.958Z,99.99
2022-08-23T05:29:56.967Z,99.99
2022-08-23T05:30:57.358Z,99.99
2022-08-23T05:31:56.929Z,99.99
2022-08-23T05:32:56.934Z,99.99
2022-08-23T05:33:56.888Z,99.99
2022-08-23T05:34:57.317Z,99.99
2022-08-23T05:35:56.874Z,99.73
2022-08-23T05:36:56.854Z,99.42
2022-08-23T05:37:56.827Z,98.71
2022-08-23T05:38:56.835Z,98.50
2022-08-23T05:39:57.280Z,98.50
2022-08-23T05:40:56.784Z,98.30
2022-08-23T05:41:56.773Z,97.34
2022-08-23T05:42:56.783Z,97.04
2022-08-23T05:43:56.757Z,96.94
2022-08-23T05:44:57.062Z,96.73
2022-08-23T05:45:56.712Z,96.53
2022-08-23T05:46:56.713Z,96.23
2022-08-23T05:47:56.693Z,95.92
2022-08-23T05:48:56.712Z,95.87
2022-08-23T05:49:58.133Z,95.98
2022-08-23T05:50:56.675Z,96.08
2022-08-23T05:51:56.643Z,95.78
2022-08-23T05:52:56.631Z,95.47
2022-08-23T05:53:56.623Z,95.17
2022-08-23T05:54:56.971Z,95.02
2022-08-23T05:55:56.639Z,95.32
2022-08-23T05:56:56.602Z,95.12
2022-08-23T05:57:56.591Z,95.12
2022-08-23T05:58:59.617Z,95.02
2022-08-23T05:59:56.571Z,94.87
2022-08-23T06:00:57.047Z,94.67
2022-08-23T06:01:56.540Z,94.67
2022-08-23T06:02:56.519Z,94.37
2022-08-23T06:03:56.501Z,94.17
2022-08-23T06:04:57.578Z,93.41
2022-08-23T06:05:56.493Z,93.10
2022-08-23T06:06:56.475Z,92.70
2022-08-23T06:07:56.589Z,92.05
2022-08-23T06:08:56.439Z,91.64
2022-08-23T06:09:56.449Z,90.99
2022-08-23T06:10:56.840Z,91.39
2022-08-23T06:11:56.393Z,91.46
2022-08-23T06:12:56.370Z,90.95
2022-08-23T06:13:56.416Z,90.54
2022-08-23T06:14:56.796Z,90.64
2022-08-23T06:15:56.349Z,90.60
2022-08-23T06:16:56.557Z,89.79
2022-08-23T06:17:56.371Z,88.88
2022-08-23T06:18:56.287Z,89.04
2022-08-23T06:19:56.695Z,87.95
2022-08-23T06:20:56.254Z,84.55
2022-08-23T06:21:56.268Z,81.35
2022-08-23T06:22:56.259Z,79.36
2022-08-23T06:23:56.228Z,77.67
2022-08-23T06:24:56.647Z,76.53
2022-08-23T06:25:56.235Z,75.09
2022-08-23T06:26:56.229Z,74.85
2022-08-23T06:27:56.178Z,73.81
2022-08-23T06:28:56.272Z,73.07
2022-08-23T06:29:56.138Z,71.73
2022-08-23T06:30:56.598Z,71.39
2022-08-23T06:31:56.135Z,70.26
2022-08-23T06:32:56.126Z,68.79
2022-08-23T06:33:56.155Z,68.26
2022-08-23T06:35:31.443Z,68.16
2022-08-23T06:35:57.057Z,67.13
2022-08-23T06:36:56.056Z,67.05
2022-08-23T06:37:56.083Z,67.66
2022-08-23T06:38:56.045Z,66.13
2022-08-23T06:39:56.396Z,66.16
2022-08-23T06:40:55.989Z,66.02
2022-08-23T06:41:56.014Z,65.83
2022-08-23T06:42:56.006Z,65.19
2022-08-23T06:43:55.986Z,64.49
2022-08-23T06:44:56.419Z,64.13
2022-08-23T06:45:58.469Z,63.80
2022-08-23T06:46:56.016Z,63.17
2022-08-23T06:47:55.980Z,62.34
2022-08-23T06:48:55.887Z,61.61
2022-08-23T06:49:58.236Z,60.89
2022-08-23T06:50:55.857Z,60.36
2022-08-23T06:51:55.856Z,58.64
2022-08-23T06:52:55.835Z,57.69
2022-08-23T06:53:55.825Z,56.20
2022-08-23T06:54:57.526Z,56.72
2022-08-23T06:55:55.823Z,58.01
2022-08-23T06:56:55.803Z,57.59
2022-08-23T06:57:55.772Z,56.27
2022-08-23T06:58:55.756Z,54.95
2022-08-23T06:59:56.108Z,55.65
2022-08-23T07:00:57.542Z,55.55
2022-08-23T07:01:55.855Z,55.94
2022-08-23T07:02:55.772Z,54.63
2022-08-23T07:03:55.716Z,54.53
2022-08-23T07:04:56.037Z,54.21
2022-08-23T07:05:55.675Z,54.38
2022-08-23T07:06:55.676Z,53.48
2022-08-23T07:07:55.673Z,53.68
2022-08-23T07:08:55.679Z,54.17
2022-08-23T07:09:56.085Z,53.31
2022-08-23T07:10:55.608Z,53.41
2022-08-23T07:11:55.662Z,53.38
2022-08-23T07:12:55.709Z,53.23
2022-08-23T07:13:55.646Z,52.04
2022-08-23T07:14:55.986Z,52.12
2022-08-23T07:15:55.593Z,52.64
2022-08-23T07:16:55.547Z,52.31
2022-08-23T07:17:55.527Z,52.61
2022-08-23T07:18:55.521Z,51.42
2022-08-23T07:19:55.515Z,51.52
2022-08-23T07:20:55.927Z,51.60
2022-08-23T07:21:55.473Z,52.61
2022-08-23T07:22:55.530Z,53.33
2022-08-23T07:23:55.447Z,54.35
2022-08-23T07:24:55.939Z,53.43
2022-08-23T07:25:55.439Z,53.01
2022-08-23T07:26:55.413Z,52.17
2022-08-23T07:27:55.464Z,52.86
2022-08-23T07:28:55.381Z,52.17
2022-08-23T07:29:55.376Z,51.10
2022-08-23T07:30:55.783Z,52.56
2022-08-23T07:31:55.405Z,54.15
2022-08-23T07:32:55.416Z,53.88
2022-08-23T07:33:55.307Z,53.36
2022-08-23T07:34:55.807Z,53.43
2022-08-23T07:35:55.326Z,53.11
2022-08-23T07:36:55.277Z,52.61
2022-08-23T07:37:55.301Z,52.47
2022-08-23T07:38:55.295Z,53.88
2022-08-23T07:39:58.491Z,55.42
2022-08-23T07:40:55.804Z,55.52
2022-08-23T07:41:55.238Z,55.02
2022-08-23T07:42:55.285Z,54.47
2022-08-23T07:43:55.207Z,53.63
2022-08-23T07:44:55.180Z,52.59
2022-08-23T07:45:55.606Z,52.36
2022-08-23T07:46:55.233Z,50.93
2022-08-23T07:47:55.145Z,51.10
2022-08-23T07:48:55.306Z,50.34
2022-08-23T07:49:55.120Z,52.24
2022-08-23T07:50:57.874Z,51.75
2022-08-23T07:51:55.150Z,52.83
2022-08-23T07:52:55.081Z,51.62
2022-08-23T07:53:55.082Z,51.30
2022-08-23T07:54:55.045Z,50.71
2022-08-23T07:55:55.069Z,50.09
2022-08-23T07:56:55.453Z,49.57
2022-08-23T07:57:55.038Z,49.15
2022-08-23T07:58:55.029Z,49.45
2022-08-23T07:59:54.988Z,49.60
2022-08-23T08:00:54.998Z,48.78
2022-08-23T08:01:55.482Z,48.41
2022-08-23T08:02:55.070Z,48.49
2022-08-23T08:03:54.969Z,48.36
2022-08-23T08:04:54.927Z,47.85
2022-08-23T08:05:54.924Z,48.24
2022-08-23T08:07:17.666Z,48.86
2022-08-23T08:07:55.922Z,48.63
2022-08-23T08:08:54.869Z,50.58
2022-08-23T08:09:54.927Z,50.81
2022-08-23T08:10:54.882Z,51.92
2022-08-23T08:11:55.314Z,52.34
2022-08-23T08:12:54.858Z,53.36
2022-08-23T08:13:54.811Z,51.84
2022-08-23T08:14:54.810Z,51.45
2022-08-23T08:15:54.871Z,51.70
2022-08-23T08:16:55.117Z,50.68
2022-08-23T08:17:54.799Z,50.46
2022-08-23T08:18:54.769Z,49.79
2022-08-23T08:19:54.778Z,50.06
2022-08-23T08:20:54.749Z,49.74
2022-08-23T08:21:55.169Z,49.62
2022-08-23T08:22:58.384Z,49.32
2022-08-23T08:23:54.699Z,48.73
2022-08-23T08:24:54.686Z,49.35
2022-08-23T08:25:54.679Z,50.09
2022-08-23T08:26:55.045Z,50.78
2022-08-23T08:27:54.666Z,50.68
2022-08-23T08:28:54.636Z,50.81
2022-08-23T08:29:54.678Z,52.04
2022-08-23T08:30:54.650Z,52.44
2022-08-23T08:31:54.967Z,53.16
2022-08-23T08:32:54.576Z,53.56
2022-08-23T08:33:54.601Z,52.91
2022-08-23T08:34:54.549Z,53.73
2022-08-23T08:35:59.336Z,55.38
2022-08-23T08:36:57.988Z,55.90
2022-08-23T08:37:54.521Z,57.22
2022-08-23T08:38:58.794Z,56.95
2022-08-23T08:39:55.579Z,57.84
2022-08-23T08:40:54.509Z,58.54
2022-08-23T08:42:04.191Z,58.51
2022-08-23T08:42:55.593Z,57.71
2022-08-23T08:43:55.700Z,58.74
2022-08-23T08:44:54.456Z,57.67
2022-08-23T08:45:57.611Z,58.57
2022-08-23T08:46:54.750Z,58.80
2022-08-23T08:47:54.430Z,59.09
2022-08-23T08:48:54.379Z,59.39
2022-08-23T08:49:54.372Z,59.27
2022-08-23T08:50:54.350Z,58.17
2022-08-23T08:51:54.390Z,58.87
2022-08-23T08:52:54.741Z,58.57
2022-08-23T08:53:54.349Z,58.94
2022-08-23T08:54:55.750Z,58.94
2022-08-23T08:55:54.281Z,59.64
2022-08-23T08:56:54.299Z,59.81
2022-08-23T08:57:54.707Z,58.22
2022-08-23T08:58:54.301Z,58.22
2022-08-23T08:59:54.321Z,57.59
2022-08-23T09:00:56.697Z,56.59
2022-08-23T09:01:54.274Z,56.49
2022-08-23T09:02:54.721Z,56.20
2022-08-23T09:03:54.191Z,56.20
2022-08-23T09:04:54.209Z,56.52
2022-08-23T09:05:54.199Z,57.12
2022-08-23T09:06:54.199Z,57.84
2022-08-23T09:07:54.588Z,58.01
2022-08-23T09:08:54.149Z,57.62
2022-08-23T09:09:54.130Z,57.71
2022-08-23T09:10:54.131Z,56.02
2022-08-23T09:11:54.099Z,56.32
2022-08-23T09:12:54.495Z,55.76
2022-08-23T09:13:54.070Z,56.65
2022-08-23T09:14:54.071Z,56.45
2022-08-23T09:15:54.101Z,55.43
2022-08-23T09:16:54.044Z,55.33
2022-08-23T09:17:54.509Z,53.83
2022-08-23T09:18:54.008Z,53.31
2022-08-23T09:19:54.079Z,54.01
2022-08-23T09:20:54.268Z,53.51
2022-08-23T09:21:54.121Z,52.49
2022-08-23T09:22:54.357Z,52.09
2022-08-23T09:24:00.330Z,53.19
2022-08-23T09:24:54.949Z,53.69
2022-08-23T09:25:53.939Z,52.79
2022-08-23T09:26:53.958Z,52.89
2022-08-23T09:27:53.896Z,52.09
2022-08-23T09:28:54.349Z,52.49
2022-08-23T09:29:53.922Z,51.70
2022-08-23T09:30:53.878Z,51.97
2022-08-23T09:31:53.854Z,52.67
2022-08-23T09:32:53.848Z,51.77
2022-08-23T09:33:54.221Z,50.38
2022-08-23T09:34:53.799Z,51.28
2022-08-23T09:35:53.778Z,52.37
2022-08-23T09:36:53.799Z,51.75
2022-08-23T09:37:53.780Z,51.45
2022-08-23T09:38:54.278Z,51.84
2022-08-23T09:39:53.911Z,51.82
2022-08-23T09:40:53.807Z,51.82
2022-08-23T09:41:53.700Z,50.53
2022-08-23T09:42:53.699Z,49.61
2022-08-23T09:43:54.076Z,48.82
2022-08-23T09:44:53.691Z,48.99
2022-08-23T09:45:53.665Z,48.40
2022-08-23T09:46:53.676Z,48.38
2022-08-23T09:47:53.628Z,49.27
2022-08-23T09:48:54.009Z,49.86
2022-08-23T09:49:53.784Z,48.75
2022-08-23T09:50:53.799Z,49.17
2022-08-23T09:51:54.252Z,48.77
2022-08-23T09:52:53.667Z,49.46
2022-08-23T09:53:54.001Z,49.44
2022-08-23T09:54:55.817Z,49.34
2022-08-23T09:55:53.539Z,49.15
2022-08-23T09:56:53.505Z,48.85
2022-08-23T09:57:53.507Z,48.38
2022-08-23T09:58:53.891Z,47.98
2022-08-23T09:59:53.489Z,48.57
2022-08-23T10:00:53.539Z,48.35
2022-08-23T10:01:53.555Z,47.16
2022-08-23T10:02:53.450Z,46.47
2022-08-23T10:03:53.439Z,46.97
2022-08-23T10:04:53.474Z,47.06
2022-08-23T10:05:53.398Z,47.58
2022-08-23T10:06:53.375Z,48.25
2022-08-23T10:07:53.378Z,47.75
2022-08-23T10:08:53.677Z,47.16
2022-08-23T10:09:53.369Z,48.85
2022-08-23T10:10:53.366Z,49.52
2022-08-23T10:11:53.693Z,48.33
2022-08-23T10:12:54.264Z,48.53
2022-08-23T10:13:53.317Z,48.60
2022-08-23T10:14:53.296Z,49.49
2022-08-23T10:15:53.291Z,47.49
2022-08-23T10:16:54.310Z,45.23
2022-08-23T10:17:53.297Z,44.72
2022-08-23T10:18:53.601Z,44.23
2022-08-23T10:19:53.220Z,43.73
2022-08-23T10:20:53.208Z,41.87
2022-08-23T10:21:53.249Z,42.66
2022-08-23T10:22:53.207Z,43.46
2022-08-23T10:23:53.747Z,44.52
2022-08-23T10:24:53.158Z,47.29
2022-08-23T10:25:53.250Z,45.98
2022-08-23T10:26:53.155Z,46.18
2022-08-23T10:27:53.136Z,45.29
2022-08-23T10:28:53.567Z,45.09
2022-08-23T10:29:53.128Z,44.90
2022-08-23T10:30:53.259Z,44.90
2022-08-23T10:31:55.730Z,45.09
2022-08-23T10:32:54.307Z,45.79
2022-08-23T10:33:53.060Z,45.19
2022-08-23T10:34:53.462Z,44.31
2022-08-23T10:35:53.028Z,44.50
2022-08-23T10:36:53.007Z,43.93
2022-08-23T10:37:53.005Z,46.01
2022-08-23T10:38:53.384Z,45.01
2022-08-23T10:39:53.007Z,44.52
2022-08-23T10:40:52.967Z,44.52
2022-08-23T10:41:53.219Z,45.21
2022-08-23T10:42:52.928Z,44.40
2022-08-23T10:43:52.918Z,42.92
2022-08-23T10:44:52.990Z,43.51
2022-08-23T10:45:55.986Z,43.91
2022-08-23T10:46:53.912Z,43.88
2022-08-23T10:47:52.878Z,44.68
2022-08-23T10:48:53.294Z,42.43
2022-08-23T10:49:53.339Z,43.31
2022-08-23T10:50:56.010Z,43.41
2022-08-23T10:51:52.830Z,42.62
2022-08-23T10:52:52.836Z,43.83
2022-08-23T10:53:52.777Z,44.02
2022-08-23T10:54:53.213Z,43.13
2022-08-23T10:55:52.777Z,42.35
2022-08-23T10:56:52.766Z,43.13
2022-08-23T10:57:52.807Z,42.82
2022-08-23T10:58:52.700Z,42.92
2022-08-23T10:59:53.349Z,41.24
2022-08-23T11:00:52.796Z,41.71
2022-08-23T11:01:52.699Z,42.50
2022-08-23T11:02:52.896Z,41.81
2022-08-23T11:03:52.654Z,41.91
2022-08-23T11:04:53.083Z,42.97
2022-08-23T11:05:52.607Z,42.48
2022-08-23T11:06:52.608Z,42.88
2022-08-23T11:07:52.605Z,41.49
2022-08-23T11:08:52.564Z,42.19
2022-08-23T11:09:52.998Z,43.15
2022-08-23T11:10:56.832Z,41.28
2022-08-23T11:11:52.587Z,41.97
2022-08-23T11:12:52.536Z,42.85
2022-08-23T11:13:52.524Z,42.44
2022-08-23T11:14:52.927Z,40.07
2022-08-23T11:15:52.545Z,40.27
2022-08-23T11:16:52.500Z,40.39
2022-08-23T11:17:52.467Z,39.89
2022-08-23T11:18:52.495Z,40.39
2022-08-23T11:19:52.772Z,41.57
2022-08-23T11:20:52.425Z,42.14
2022-08-23T11:21:52.436Z,41.75
2022-08-23T11:22:52.436Z,40.47
2022-08-23T11:23:52.388Z,41.17
2022-08-23T11:24:52.445Z,42.56
2022-08-23T11:25:52.367Z,40.90
2022-08-23T11:26:52.374Z,41.30
2022-08-23T11:27:52.376Z,42.01
2022-08-23T11:28:52.387Z,41.99
2022-08-23T11:29:52.366Z,42.58
2022-08-23T11:30:52.394Z,42.46
2022-08-23T11:31:52.292Z,42.26
2022-08-23T11:32:52.606Z,41.75
2022-08-23T11:33:52.317Z,41.28
2022-08-23T11:34:52.318Z,41.95
2022-08-23T11:35:52.267Z,41.55
2022-08-23T11:36:52.248Z,42.24
2022-08-23T11:37:52.223Z,42.42
2022-08-23T11:38:52.229Z,42.42
2022-08-23T11:39:52.251Z,41.04
2022-08-23T11:40:52.201Z,41.51
2022-08-23T11:41:52.214Z,40.82
2022-08-23T11:42:52.163Z,41.02
2022-08-23T11:43:52.158Z,42.00
2022-08-23T11:44:52.165Z,41.51
2022-08-23T11:45:52.147Z,42.00
2022-08-23T11:46:52.117Z,42.28
2022-08-23T11:47:52.083Z,41.49
2022-08-23T11:48:52.105Z,40.78
2022-08-23T11:49:52.158Z,40.58
2022-08-23T11:50:57.422Z,40.09
2022-08-23T11:51:53.019Z,40.29
2022-08-23T11:52:52.048Z,39.97
2022-08-23T11:53:51.997Z,40.56
2022-08-23T11:54:52.042Z,40.08
2022-08-23T11:55:51.988Z,39.68
2022-08-23T11:56:51.964Z,38.01
2022-08-23T11:57:52.053Z,38.02
2022-08-23T11:58:51.979Z,38.12
2022-08-23T11:59:52.082Z,38.51
2022-08-23T12:00:52.003Z,38.79
2022-08-23T12:01:51.906Z,38.89
2022-08-23T12:02:52.113Z,38.99
2022-08-23T12:03:52.039Z,38.62
2022-08-23T12:04:51.907Z,39.01
2022-08-23T12:05:51.908Z,38.64
2022-08-23T12:06:52.914Z,39.81
2022-08-23T12:07:51.856Z,39.81
2022-08-23T12:08:51.843Z,38.64
2022-08-23T12:09:51.828Z,38.14
2022-08-23T12:10:52.210Z,38.75
2022-08-23T12:11:51.775Z,41.41
2022-08-23T12:12:51.770Z,39.15
2022-08-23T12:13:51.744Z,38.64
2022-08-23T12:14:51.807Z,39.23
2022-08-23T12:15:51.809Z,38.64
2022-08-23T12:16:52.016Z,37.53
2022-08-23T12:17:51.777Z,37.14
2022-08-23T12:18:51.708Z,37.43
2022-08-23T12:19:51.706Z,38.02
2022-08-23T12:20:51.646Z,37.83
2022-08-23T12:21:51.656Z,38.22
2022-08-23T12:22:51.653Z,38.22
2022-08-23T12:23:51.646Z,37.34
2022-08-23T12:24:52.714Z,38.12
2022-08-23T12:25:51.616Z,39.01
2022-08-23T12:26:51.578Z,37.63
2022-08-23T12:27:51.559Z,37.85
2022-08-23T12:28:51.558Z,37.65
2022-08-23T12:29:51.554Z,38.43
2022-08-23T12:30:52.028Z,39.40
2022-08-23T12:31:51.506Z,38.62
2022-08-23T12:32:51.492Z,39.09
2022-08-23T12:33:51.480Z,39.79
2022-08-23T12:34:51.523Z,39.78
2022-08-23T12:35:51.475Z,39.28
2022-08-23T12:36:51.506Z,39.87
2022-08-23T12:37:51.611Z,39.87
2022-08-23T12:38:51.425Z,38.70
2022-08-23T12:39:51.473Z,39.28
2022-08-23T12:40:51.664Z,40.27
2022-08-23T12:41:51.366Z,38.99
2022-08-23T12:42:51.405Z,38.70
2022-08-23T12:43:51.377Z,38.89
2022-08-23T12:44:51.355Z,37.81
2022-08-23T12:45:59.465Z,36.82
2022-08-23T12:46:51.411Z,38.70
2022-08-23T12:47:51.461Z,37.71
2022-08-23T12:48:51.312Z,38.38
2022-08-23T12:49:51.346Z,38.97
2022-08-23T12:50:51.286Z,37.59
2022-08-23T12:51:51.343Z,37.48
2022-08-23T12:52:51.297Z,36.10
2022-08-23T12:53:51.231Z,35.63